Time;durP1;ratioP1;P1;durP2;ratioP2;P2;SDS_P1;SDS_P2;PMS_P1;PMS_P2;Temp;Humidity;BMP_temperature;BMP_pressure;BME280_temperature;BME280_humidity;BME280_pressure;Samples;Min_cycle;Max_cycle;Signal;HPM_P1;HPM_P2
2022/11/05 00:10:17;;;;;;;63.80;34.67;;;;;;;;;;5074022;28;20074;-39
2022/11/05 00:18:10;;;;;;;62.95;34.15;;;;;;;;;;5074128;28;20027;-38
2022/11/05 00:20:35;;;;;;;66.43;35.80;;;;;;;;;;5074062;28;20021;-42
2022/11/05 00:25:55;;;;;;;62.75;33.88;;;;;;;;;;5074014;28;20151;-43
2022/11/05 00:28:20;;;;;;;68.85;34.65;;;;;;;;;;5073619;28;20040;-40
2022/11/05 00:30:45;;;;;;;65.55;34.25;;;;;;;;;;5074048;28;20070;-43
2022/11/05 00:33:10;;;;;;;62.73;33.03;;;;;;;;;;5073600;28;20031;-39
2022/11/05 00:35:36;;;;;;;67.87;34.00;;;;;;;;;;5073578;28;20333;-42
2022/11/05 00:38:01;;;;;;;61.40;33.80;;;;;;;;;;5073667;28;20245;-39
2022/11/05 00:40:26;;;;;;;64.80;34.57;;;;;;;;;;5073348;28;20249;-40
2022/11/05 00:45:36;;;;;;;56.20;32.55;;;;;;;;;;5073698;28;20082;-42
2022/11/05 00:50:45;;;;;;;65.13;33.38;;;;;;;;;;5073166;28;20387;-38
2022/11/05 00:53:10;;;;;;;61.28;33.97;;;;;;;;;;5073120;28;20024;-42
2022/11/05 00:55:37;;;;;;;61.67;32.70;;;;;;;;;;5073604;28;20066;-39
2022/11/05 00:58:07;;;;;;;60.60;32.92;;;;;;;;;;5073157;28;20021;-42
2022/11/05 01:00:33;;;;;;;58.90;32.28;;;;;;;;;;5073272;28;20448;-40
2022/11/05 01:03:00;;;;;;;62.05;32.35;;;;;;;;;;5072945;28;20024;-40
2022/11/05 01:05:25;;;;;;;71.90;34.17;;;;;;;;;;5072872;28;20013;-41
2022/11/05 01:07:51;;;;;;;60.35;30.77;;;;;;;;;;5073136;28;20112;-39
2022/11/05 01:10:17;;;;;;;59.25;31.02;;;;;;;;;;5073058;28;20024;-37
2022/11/05 01:12:42;;;;;;;70.65;34.20;;;;;;;;;;5073015;28;20023;-41
2022/11/05 01:15:08;;;;;;;63.25;33.95;;;;;;;;;;5073241;28;20517;-39
2022/11/05 01:17:33;;;;;;;65.30;33.22;;;;;;;;;;5072378;28;20016;-42
2022/11/05 01:19:58;;;;;;;59.92;32.78;;;;;;;;;;5072819;28;20154;-41
2022/11/05 01:22:23;;;;;;;68.90;33.17;;;;;;;;;;5072621;28;20376;-41
2022/11/05 01:24:49;;;;;;;64.33;32.23;;;;;;;;;;5073233;28;20095;-37
2022/11/05 01:27:14;;;;;;;58.57;31.80;;;;;;;;;;5071540;28;20249;-39
2022/11/05 01:29:40;;;;;;;64.85;31.77;;;;;;;;;;5072970;28;20245;-39
2022/11/05 01:32:05;;;;;;;61.97;32.10;;;;;;;;;;5072633;28;20056;-35
2022/11/05 01:34:31;;;;;;;56.03;31.10;;;;;;;;;;5072562;28;20537;-41
2022/11/05 01:36:56;;;;;;;62.50;31.13;;;;;;;;;;5072350;28;20025;-42
2022/11/05 01:39:21;;;;;;;70.07;32.60;;;;;;;;;;5072804;28;20245;-38
2022/11/05 01:41:46;;;;;;;69.47;33.97;;;;;;;;;;5072460;28;20273;-38
2022/11/05 01:44:30;;;;;;;68.77;34.53;;;;;;;;;;5072446;28;20281;-40
2022/11/05 01:46:55;;;;;;;67.78;33.45;;;;;;;;;;5072622;28;20250;-36
2022/11/05 01:49:25;;;;;;;62.00;33.45;;;;;;;;;;5072282;28;20023;-41
2022/11/05 01:51:50;;;;;;;67.38;33.83;;;;;;;;;;5072675;28;20016;-42
2022/11/05 01:54:17;;;;;;;68.82;34.08;;;;;;;;;;5072518;28;20086;-39
2022/11/05 01:56:46;;;;;;;57.97;33.55;;;;;;;;;;5072447;28;20429;-40
2022/11/05 01:59:17;;;;;;;67.00;35.13;;;;;;;;;;5072483;28;20074;-41
2022/11/05 02:01:43;;;;;;;71.90;33.35;;;;;;;;;;5072847;28;20020;-40
2022/11/05 02:04:10;;;;;;;67.97;33.25;;;;;;;;;;5072283;28;20059;-40
2022/11/05 02:06:37;;;;;;;65.50;32.45;;;;;;;;;;5072492;28;20036;-36
2022/11/05 02:09:03;;;;;;;63.30;35.03;;;;;;;;;;5072565;28;20020;-39
2022/11/05 02:11:28;;;;;;;65.93;33.05;;;;;;;;;;5072506;28;20028;-39
2022/11/05 02:13:53;;;;;;;64.13;31.65;;;;;;;;;;5072291;28;20464;-42
2022/11/05 02:16:37;;;;;;;61.60;31.60;;;;;;;;;;5072167;28;20013;-41
2022/11/05 02:19:02;;;;;;;56.45;31.48;;;;;;;;;;5072391;28;20336;-41
2022/11/05 02:21:31;;;;;;;59.70;31.10;;;;;;;;;;5072383;28;20101;-37
2022/11/05 02:23:59;;;;;;;58.95;30.67;;;;;;;;;;5072328;28;20288;-40
2022/11/05 02:26:47;;;;;;;57.60;30.83;;;;;;;;;;5070965;28;20029;-39
2022/11/05 02:29:12;;;;;;;56.53;30.67;;;;;;;;;;5074911;28;20029;-39
2022/11/05 02:31:45;;;;;;;56.13;30.10;;;;;;;;;;5076181;28;20016;-41
2022/11/05 02:34:16;;;;;;;56.80;30.02;;;;;;;;;;5075731;28;20047;-39
2022/11/05 02:36:47;;;;;;;54.13;29.65;;;;;;;;;;5075987;28;20100;-39
2022/11/05 02:39:13;;;;;;;58.47;30.27;;;;;;;;;;5075886;28;20110;-41
2022/11/05 02:41:47;;;;;;;52.47;30.10;;;;;;;;;;5075895;28;20025;-42
2022/11/05 02:44:12;;;;;;;55.08;31.27;;;;;;;;;;5075793;28;20292;-37
2022/11/05 02:47:04;;;;;;;49.50;28.43;;;;;;;;;;5075733;28;20129;-38
2022/11/05 02:49:37;;;;;;;57.92;30.02;;;;;;;;;;5067227;28;20336;-42
2022/11/05 02:52:05;;;;;;;55.30;29.80;;;;;;;;;;5075881;28;20017;-39
2022/11/05 02:54:49;;;;;;;50.58;29.63;;;;;;;;;;5075723;28;20036;-40
2022/11/05 02:57:17;;;;;;;48.60;28.30;;;;;;;;;;5075644;28;20158;-39
2022/11/05 02:59:42;;;;;;;50.37;29.37;;;;;;;;;;5075833;28;20028;-39
2022/11/05 03:02:08;;;;;;;52.97;29.07;;;;;;;;;;5075374;28;20368;-39
2022/11/05 03:04:33;;;;;;;47.83;27.10;;;;;;;;;;5075358;28;20245;-38
2022/11/05 03:06:58;;;;;;;38.63;22.70;;;;;;;;;;5075686;28;20440;-40
2022/11/05 03:09:35;;;;;;;31.10;19.03;;;;;;;;;;5075438;28;20074;-39
2022/11/05 03:12:20;;;;;;;21.05;12.50;;;;;;;;;;5075423;28;20249;-41
2022/11/05 03:14:56;;;;;;;17.13;11.38;;;;;;;;;;5075028;28;20479;-40
2022/11/05 03:17:21;;;;;;;16.23;10.25;;;;;;;;;;5075372;28;20025;-40
2022/11/05 03:19:48;;;;;;;16.92;10.05;;;;;;;;;;5075202;28;20490;-39
2022/11/05 03:22:17;;;;;;;12.82;7.75;;;;;;;;;;5075002;28;20024;-39
2022/11/05 03:24:48;;;;;;;15.93;8.90;;;;;;;;;;5073771;28;20387;-40
2022/11/05 03:27:15;;;;;;;10.38;7.28;;;;;;;;;;5074794;28;20025;-37
2022/11/05 03:29:43;;;;;;;12.93;7.57;;;;;;;;;;5075109;28;20352;-37
2022/11/05 03:32:09;;;;;;;12.93;6.55;;;;;;;;;;5075018;28;20684;-37
2022/11/05 03:34:37;;;;;;;11.20;6.50;;;;;;;;;;5074639;28;20356;-39
2022/11/05 03:37:04;;;;;;;9.15;6.78;;;;;;;;;;5075087;28;20024;-37
2022/11/05 03:39:31;;;;;;;8.75;6.72;;;;;;;;;;5074301;28;20078;-39
2022/11/05 03:41:57;;;;;;;11.18;6.90;;;;;;;;;;5074494;28;20032;-40
2022/11/05 03:44:28;;;;;;;8.88;5.60;;;;;;;;;;5074665;28;20059;-38
2022/11/05 03:46:55;;;;;;;9.15;5.78;;;;;;;;;;5074501;28;20031;-36
2022/11/05 03:49:24;;;;;;;7.75;5.97;;;;;;;;;;5074565;28;20021;-41
2022/11/05 03:52:21;;;;;;;10.63;6.60;;;;;;;;;;5074502;28;20027;-39
2022/11/05 03:54:46;;;;;;;10.07;5.93;;;;;;;;;;5061884;28;20402;-39
2022/11/05 03:57:11;;;;;;;8.52;5.63;;;;;;;;;;5074158;28;20099;-40
2022/11/05 03:59:38;;;;;;;10.93;6.73;;;;;;;;;;5074489;28;20024;-39
2022/11/05 04:02:03;;;;;;;8.65;6.40;;;;;;;;;;5074236;28;20650;-37
2022/11/05 04:04:29;;;;;;;9.27;6.72;;;;;;;;;;5074235;28;20018;-39
2022/11/05 04:15:06;;;;;;;10.18;7.32;;;;;;;;;;5073705;28;20498;-38
2022/11/05 04:17:31;;;;;;;11.93;7.10;;;;;;;;;;5074018;28;20024;-41
2022/11/05 04:25:24;;;;;;;11.48;6.85;;;;;;;;;;5073718;28;20122;-37
2022/11/05 04:27:49;;;;;;;10.43;6.93;;;;;;;;;;5073650;28;20063;-36
2022/11/05 04:30:18;;;;;;;9.32;6.68;;;;;;;;;;5073876;28;20237;-40
2022/11/05 04:32:56;;;;;;;9.77;6.45;;;;;;;;;;5073648;28;20024;-40
2022/11/05 04:35:21;;;;;;;10.13;6.78;;;;;;;;;;5073401;28;20043;-41
2022/11/05 04:37:46;;;;;;;9.18;7.13;;;;;;;;;;5073518;28;20016;-37
2022/11/05 04:40:11;;;;;;;12.90;7.40;;;;;;;;;;5074098;28;20368;-33
2022/11/05 04:42:37;;;;;;;11.85;7.30;;;;;;;;;;5072971;28;20300;-38
2022/11/05 04:45:02;;;;;;;13.23;7.23;;;;;;;;;;5073450;28;20029;-37
2022/11/05 04:47:27;;;;;;;10.05;7.00;;;;;;;;;;5073194;28;20278;-34
2022/11/05 04:49:53;;;;;;;11.03;7.00;;;;;;;;;;5073355;28;20024;-37
2022/11/05 04:52:18;;;;;;;11.47;6.47;;;;;;;;;;5072505;28;20793;-39
2022/11/05 04:54:43;;;;;;;10.63;7.13;;;;;;;;;;5072939;28;20759;-39
2022/11/05 04:57:08;;;;;;;9.37;7.20;;;;;;;;;;5073249;28;20397;-36
2022/11/05 04:59:34;;;;;;;11.70;7.47;;;;;;;;;;5073185;28;20574;-40
2022/11/05 05:01:59;;;;;;;11.90;7.10;;;;;;;;;;5073416;28;20252;-39
2022/11/05 05:04:24;;;;;;;12.53;7.00;;;;;;;;;;5072858;28;20248;-41
2022/11/05 05:06:49;;;;;;;9.25;6.63;;;;;;;;;;5072925;28;20328;-38
2022/11/05 05:09:15;;;;;;;11.13;6.33;;;;;;;;;;5072677;28;20122;-36
2022/11/05 05:11:40;;;;;;;10.25;6.88;;;;;;;;;;5073237;28;20720;-40
2022/11/05 05:14:05;;;;;;;9.17;6.83;;;;;;;;;;5072645;28;20029;-39
2022/11/05 05:16:30;;;;;;;7.83;6.47;;;;;;;;;;5072846;28;20260;-41
2022/11/05 05:18:55;;;;;;;10.18;6.80;;;;;;;;;;5072790;28;20286;-37
2022/11/05 05:21:41;;;;;;;8.23;6.47;;;;;;;;;;5072789;28;20448;-37
2022/11/05 05:24:10;;;;;;;8.73;6.78;;;;;;;;;;5072633;28;20025;-41
2022/11/05 05:26:36;;;;;;;9.80;7.18;;;;;;;;;;5072875;28;20020;-40
2022/11/05 05:29:01;;;;;;;9.30;7.03;;;;;;;;;;5072654;28;20520;-36
2022/11/05 05:31:27;;;;;;;10.68;7.13;;;;;;;;;;5072670;28;20039;-38
2022/11/05 05:33:53;;;;;;;9.48;7.22;;;;;;;;;;5072565;28;20040;-40
2022/11/05 05:36:18;;;;;;;9.48;6.68;;;;;;;;;;5072498;28;20073;-39
2022/11/05 05:38:44;;;;;;;12.82;7.97;;;;;;;;;;5072563;28;20092;-39
2022/11/05 05:41:09;;;;;;;10.23;7.50;;;;;;;;;;5072607;28;20021;-35
2022/11/05 05:43:34;;;;;;;9.38;7.05;;;;;;;;;;5072518;28;20277;-41
2022/11/05 05:46:03;;;;;;;10.52;7.80;;;;;;;;;;5072419;28;20023;-38
2022/11/05 05:48:28;;;;;;;10.57;7.75;;;;;;;;;;5072573;28;20480;-40
2022/11/05 05:50:53;;;;;;;13.15;8.00;;;;;;;;;;5070325;28;20031;-40
2022/11/05 05:53:19;;;;;;;11.35;7.75;;;;;;;;;;5070154;28;20020;-38
2022/11/05 05:55:44;;;;;;;12.45;8.15;;;;;;;;;;5070582;28;20016;-42
2022/11/05 05:58:09;;;;;;;13.77;7.87;;;;;;;;;;5071822;28;20013;-38
2022/11/05 06:00:34;;;;;;;13.13;8.17;;;;;;;;;;5072041;28;20367;-38
2022/11/05 06:03:00;;;;;;;9.85;7.53;;;;;;;;;;5074284;28;20732;-39
2022/11/05 06:05:25;;;;;;;11.70;8.38;;;;;;;;;;5076053;28;20025;-39
2022/11/05 06:07:56;;;;;;;12.77;8.45;;;;;;;;;;5076473;28;20020;-37
2022/11/05 06:10:22;;;;;;;13.45;8.52;;;;;;;;;;5076379;28;20375;-38
2022/11/05 06:12:47;;;;;;;15.63;8.25;;;;;;;;;;5076316;28;20024;-36
2022/11/05 06:15:13;;;;;;;12.53;8.33;;;;;;;;;;5076254;28;20079;-38
2022/11/05 06:17:38;;;;;;;12.07;8.45;;;;;;;;;;5076143;28;20246;-40
2022/11/05 06:20:04;;;;;;;10.23;7.90;;;;;;;;;;5075812;28;20016;-39
2022/11/05 06:22:29;;;;;;;12.43;6.93;;;;;;;;;;5076150;28;20237;-37
2022/11/05 06:24:54;;;;;;;9.73;7.47;;;;;;;;;;5076202;28;20032;-36
2022/11/05 06:27:19;;;;;;;11.13;7.83;;;;;;;;;;5076037;28;20444;-40
2022/11/05 06:29:45;;;;;;;10.80;7.27;;;;;;;;;;5076010;28;20740;-39
2022/11/05 06:32:10;;;;;;;10.85;7.43;;;;;;;;;;5075904;28;20601;-39
2022/11/05 06:34:35;;;;;;;17.15;8.50;;;;;;;;;;5075855;28;20086;-38
2022/11/05 06:37:00;;;;;;;9.05;6.93;;;;;;;;;;5075527;28;20017;-40
2022/11/05 06:39:26;;;;;;;11.17;8.10;;;;;;;;;;5075912;28;20032;-40
2022/11/05 06:41:51;;;;;;;11.85;7.88;;;;;;;;;;5075692;28;20332;-40
2022/11/05 06:44:16;;;;;;;10.50;8.45;;;;;;;;;;5075615;28;20185;-40
2022/11/05 06:46:41;;;;;;;15.93;8.63;;;;;;;;;;5075681;28;20024;-37
2022/11/05 06:49:07;;;;;;;10.30;7.77;;;;;;;;;;5075666;28;20692;-39
2022/11/05 06:51:32;;;;;;;12.68;7.88;;;;;;;;;;5075405;28;20690;-40
2022/11/05 06:53:57;;;;;;;13.33;8.17;;;;;;;;;;5075629;28;20125;-40
2022/11/05 06:56:23;;;;;;;12.47;8.03;;;;;;;;;;5075522;28;20242;-39
2022/11/05 06:58:48;;;;;;;9.68;7.43;;;;;;;;;;5075564;28;20237;-39
2022/11/05 07:01:13;;;;;;;12.02;8.45;;;;;;;;;;5075701;28;20514;-41
2022/11/05 07:03:39;;;;;;;11.63;7.13;;;;;;;;;;5075380;28;20052;-37
2022/11/05 07:06:05;;;;;;;9.10;7.07;;;;;;;;;;5073911;28;20253;-38
2022/11/05 07:08:31;;;;;;;11.70;7.22;;;;;;;;;;5075624;28;20299;-40
2022/11/05 07:10:57;;;;;;;9.88;7.28;;;;;;;;;;5075394;28;20025;-39
2022/11/05 07:13:22;;;;;;;10.00;7.03;;;;;;;;;;5075040;28;20027;-39
2022/11/05 07:15:47;;;;;;;9.95;7.22;;;;;;;;;;5074667;28;20063;-39
2022/11/05 07:18:13;;;;;;;10.70;6.88;;;;;;;;;;5075090;28;20020;-39
2022/11/05 07:20:38;;;;;;;15.23;7.75;;;;;;;;;;5074924;28;20040;-41
2022/11/05 07:23:04;;;;;;;9.70;7.18;;;;;;;;;;5075200;28;20035;-40
2022/11/05 07:25:31;;;;;;;8.85;6.57;;;;;;;;;;5075486;28;20368;-38
2022/11/05 07:27:56;;;;;;;12.13;7.43;;;;;;;;;;5075100;28;20017;-37
2022/11/05 07:30:21;;;;;;;10.10;6.90;;;;;;;;;;5075087;28;20356;-37
2022/11/05 07:32:47;;;;;;;9.55;6.93;;;;;;;;;;5074867;28;20028;-34
2022/11/05 07:35:12;;;;;;;9.50;6.83;;;;;;;;;;5074695;28;20066;-42
2022/11/05 07:37:41;;;;;;;10.32;6.50;;;;;;;;;;5074613;28;20285;-39
2022/11/05 07:40:06;;;;;;;9.68;7.35;;;;;;;;;;5074888;28;20113;-37
2022/11/05 07:42:33;;;;;;;10.13;7.20;;;;;;;;;;5074835;28;20441;-37
2022/11/05 07:44:58;;;;;;;13.77;7.47;;;;;;;;;;5074676;28;20040;-38
2022/11/05 07:47:23;;;;;;;13.77;7.57;;;;;;;;;;5074866;28;20372;-40
2022/11/05 07:49:49;;;;;;;10.37;7.43;;;;;;;;;;5074412;28;20317;-36
2022/11/05 07:52:14;;;;;;;9.88;7.35;;;;;;;;;;5074603;28;20234;-40
2022/11/05 07:54:39;;;;;;;9.37;7.30;;;;;;;;;;5074603;28;20028;-39
2022/11/05 07:57:04;;;;;;;9.97;7.47;;;;;;;;;;5074624;28;20241;-39
2022/11/05 07:59:30;;;;;;;9.63;7.05;;;;;;;;;;5074160;28;20234;-42
2022/11/05 08:01:55;;;;;;;8.63;6.75;;;;;;;;;;5074268;28;20108;-39
2022/11/05 08:04:20;;;;;;;11.87;7.73;;;;;;;;;;5074587;28;20444;-37
2022/11/05 08:06:45;;;;;;;9.30;7.20;;;;;;;;;;5074367;28;20245;-40
2022/11/05 08:09:10;;;;;;;11.57;8.10;;;;;;;;;;5074214;28;20249;-42
2022/11/05 08:11:36;;;;;;;10.57;7.78;;;;;;;;;;5074210;28;20269;-38
2022/11/05 08:14:01;;;;;;;15.60;7.80;;;;;;;;;;5074187;28;20483;-41
2022/11/05 08:16:26;;;;;;;9.90;7.60;;;;;;;;;;5074145;28;20035;-41
2022/11/05 08:18:51;;;;;;;11.20;7.50;;;;;;;;;;5074034;28;20024;-41
2022/11/05 08:21:17;;;;;;;11.07;7.60;;;;;;;;;;5074090;28;20241;-42
2022/11/05 08:23:42;;;;;;;9.57;7.03;;;;;;;;;;5073894;28;20230;-38
2022/11/05 08:26:08;;;;;;;11.23;7.43;;;;;;;;;;5072535;28;20264;-39
2022/11/05 08:28:34;;;;;;;11.18;8.15;;;;;;;;;;5074002;28;20044;-39
2022/11/05 08:30:59;;;;;;;10.00;7.40;;;;;;;;;;5073853;28;20082;-39
2022/11/05 08:33:24;;;;;;;9.40;6.97;;;;;;;;;;5073403;28;20017;-39
2022/11/05 08:35:50;;;;;;;9.75;6.72;;;;;;;;;;5073855;28;20383;-42
2022/11/05 08:38:16;;;;;;;9.68;7.20;;;;;;;;;;5073704;28;20099;-41
2022/11/05 08:40:42;;;;;;;9.13;7.00;;;;;;;;;;5073513;28;20020;-40
2022/11/05 08:43:09;;;;;;;8.80;7.03;;;;;;;;;;5073229;28;20087;-42
2022/11/05 08:45:38;;;;;;;9.07;6.68;;;;;;;;;;5073611;28;20079;-41
2022/11/05 08:48:07;;;;;;;9.93;7.18;;;;;;;;;;5073185;28;20021;-41
2022/11/05 08:50:33;;;;;;;8.18;6.57;;;;;;;;;;5073623;28;20051;-38
2022/11/05 08:52:58;;;;;;;8.88;6.78;;;;;;;;;;5073374;28;20328;-40
2022/11/05 08:55:24;;;;;;;12.68;7.03;;;;;;;;;;5073182;28;20478;-39
2022/11/05 08:58:13;;;;;;;9.93;7.38;;;;;;;;;;5073041;28;20103;-41
2022/11/05 09:00:39;;;;;;;9.52;6.97;;;;;;;;;;5070056;28;20115;-37
2022/11/05 09:03:05;;;;;;;13.70;7.15;;;;;;;;;;5073512;28;20024;-42
2022/11/05 09:05:36;;;;;;;10.27;7.32;;;;;;;;;;5073210;28;20020;-42
2022/11/05 09:08:01;;;;;;;10.10;7.47;;;;;;;;;;5072999;28;20383;-37
2022/11/05 09:10:27;;;;;;;11.27;6.78;;;;;;;;;;5073073;28;20023;-40
2022/11/05 09:12:52;;;;;;;9.45;7.07;;;;;;;;;;5072877;28;20104;-42
2022/11/05 09:15:17;;;;;;;9.53;7.17;;;;;;;;;;5072761;28;20473;-42
2022/11/05 09:17:42;;;;;;;9.38;6.50;;;;;;;;;;5073105;28;20342;-37
2022/11/05 09:20:10;;;;;;;11.90;8.27;;;;;;;;;;5072984;28;20016;-41
2022/11/05 09:22:35;;;;;;;14.80;8.80;;;;;;;;;;5072869;28;20328;-41
2022/11/05 09:25:00;;;;;;;10.75;8.18;;;;;;;;;;5072882;28;20099;-39
2022/11/05 09:27:25;;;;;;;11.80;7.00;;;;;;;;;;5072672;28;20050;-39
2022/11/05 09:29:50;;;;;;;14.40;7.60;;;;;;;;;;5072841;28;20295;-37
2022/11/05 09:32:18;;;;;;;9.90;7.43;;;;;;;;;;5072884;28;20744;-41
2022/11/05 09:34:43;;;;;;;9.73;7.10;;;;;;;;;;5072668;28;20281;-40
2022/11/05 09:37:09;;;;;;;10.88;6.82;;;;;;;;;;5072335;28;20348;-40
2022/11/05 09:39:34;;;;;;;11.68;7.97;;;;;;;;;;5072745;28;20070;-42
2022/11/05 09:42:01;;;;;;;14.13;8.68;;;;;;;;;;5072522;28;20024;-39
2022/11/05 09:44:36;;;;;;;13.60;8.40;;;;;;;;;;5071823;28;20101;-42
2022/11/05 09:47:04;;;;;;;12.63;8.07;;;;;;;;;;5072540;28;20060;-42
2022/11/05 09:49:40;;;;;;;10.95;7.05;;;;;;;;;;5072561;28;20017;-37
2022/11/05 09:52:10;;;;;;;8.93;7.25;;;;;;;;;;5072448;28;20120;-35
2022/11/05 09:54:36;;;;;;;8.88;6.60;;;;;;;;;;5072345;28;20036;-40
2022/11/05 09:57:02;;;;;;;12.70;8.35;;;;;;;;;;5072311;28;20033;-40
2022/11/05 09:59:40;;;;;;;10.25;7.70;;;;;;;;;;5072792;28;20165;-35
2022/11/05 10:02:15;;;;;;;12.15;7.50;;;;;;;;;;5072476;28;20376;-39
2022/11/05 10:04:42;;;;;;;13.45;8.10;;;;;;;;;;5072953;28;20546;-41
2022/11/05 10:07:09;;;;;;;14.38;7.88;;;;;;;;;;5072519;28;20574;-41
2022/11/05 10:09:36;;;;;;;12.18;7.10;;;;;;;;;;5072181;28;20042;-41
2022/11/05 10:12:13;;;;;;;11.75;7.45;;;;;;;;;;5072325;28;20035;-42
2022/11/05 10:14:50;;;;;;;15.73;7.63;;;;;;;;;;5072223;28;20028;-43
2022/11/05 10:17:23;;;;;;;15.45;8.45;;;;;;;;;;5072208;28;20021;-42
2022/11/05 10:19:57;;;;;;;10.88;7.07;;;;;;;;;;5072209;28;20020;-42
2022/11/05 10:22:23;;;;;;;13.00;8.60;;;;;;;;;;5072281;28;20020;-43
2022/11/05 10:24:49;;;;;;;11.57;7.35;;;;;;;;;;5072326;28;20020;-38
2022/11/05 10:27:17;;;;;;;10.82;6.78;;;;;;;;;;5072011;28;20024;-39
2022/11/05 10:29:42;;;;;;;11.50;7.00;;;;;;;;;;5072097;28;20017;-37
2022/11/05 10:32:09;;;;;;;10.27;6.40;;;;;;;;;;5072021;28;20040;-37
2022/11/05 10:34:36;;;;;;;7.88;6.18;;;;;;;;;;5072281;28;20032;-38
2022/11/05 10:37:02;;;;;;;12.20;7.65;;;;;;;;;;5072501;28;20463;-42
2022/11/05 10:39:29;;;;;;;12.77;7.35;;;;;;;;;;5072118;28;20029;-42
2022/11/05 10:42:14;;;;;;;10.13;6.75;;;;;;;;;;5072127;28;20024;-40
2022/11/05 10:44:47;;;;;;;12.85;6.13;;;;;;;;;;5067641;28;20060;-37
2022/11/05 10:47:27;;;;;;;9.95;7.30;;;;;;;;;;5072147;28;20031;-37
2022/11/05 10:49:59;;;;;;;12.23;6.43;;;;;;;;;;5073819;28;20024;-40
2022/11/05 10:52:24;;;;;;;8.40;5.90;;;;;;;;;;5075553;28;20020;-40
2022/11/05 10:54:51;;;;;;;7.13;5.37;;;;;;;;;;5075364;28;20028;-41
2022/11/05 10:57:27;;;;;;;6.43;4.90;;;;;;;;;;5075321;28;20311;-39
2022/11/05 11:00:01;;;;;;;6.25;5.00;;;;;;;;;;5075583;28;20021;-37
2022/11/05 11:02:27;;;;;;;7.78;5.25;;;;;;;;;;5074138;28;20464;-39
2022/11/05 11:04:52;;;;;;;7.60;4.95;;;;;;;;;;5075349;28;20020;-41
2022/11/05 11:07:23;;;;;;;8.25;4.50;;;;;;;;;;5075438;28;20021;-36
2022/11/05 11:09:48;;;;;;;7.05;4.30;;;;;;;;;;5075036;28;20028;-41
2022/11/05 11:12:30;;;;;;;5.45;4.18;;;;;;;;;;5075517;28;20021;-41
2022/11/05 11:15:26;;;;;;;7.97;4.35;;;;;;;;;;5075162;28;20149;-37
2022/11/05 11:17:51;;;;;;;8.07;4.80;;;;;;;;;;5070118;28;20044;-39
2022/11/05 11:20:16;;;;;;;5.13;4.43;;;;;;;;;;5074956;28;20047;-38
2022/11/05 11:22:46;;;;;;;5.50;4.33;;;;;;;;;;5075141;28;20013;-36
2022/11/05 11:25:23;;;;;;;10.45;4.55;;;;;;;;;;5075168;28;20025;-41
2022/11/05 11:27:48;;;;;;;7.90;4.78;;;;;;;;;;5075277;28;20115;-39
2022/11/05 11:30:18;;;;;;;5.88;4.63;;;;;;;;;;5075031;28;20095;-40
2022/11/05 11:32:44;;;;;;;12.20;5.32;;;;;;;;;;5074681;28;20384;-37
2022/11/05 11:35:18;;;;;;;8.20;4.38;;;;;;;;;;5074952;28;20028;-42
2022/11/05 11:37:44;;;;;;;8.30;5.03;;;;;;;;;;5075239;28;20430;-42
2022/11/05 11:40:18;;;;;;;11.38;5.00;;;;;;;;;;5074789;28;20013;-40
2022/11/05 11:42:45;;;;;;;6.03;4.45;;;;;;;;;;5074373;28;20474;-42
2022/11/05 11:45:30;;;;;;;6.57;4.90;;;;;;;;;;5074610;28;20016;-39
2022/11/05 11:47:59;;;;;;;5.18;4.55;;;;;;;;;;5070206;28;20395;-35
2022/11/05 11:50:30;;;;;;;6.10;4.57;;;;;;;;;;5074667;28;20020;-42
2022/11/05 11:53:14;;;;;;;6.85;4.80;;;;;;;;;;5074532;28;20031;-41
2022/11/05 11:55:39;;;;;;;6.85;4.22;;;;;;;;;;5074147;28;20472;-42
2022/11/05 11:58:06;;;;;;;4.97;4.17;;;;;;;;;;5073335;28;20048;-39
2022/11/05 12:00:36;;;;;;;8.00;5.22;;;;;;;;;;5072957;28;20609;-37
2022/11/05 12:03:01;;;;;;;5.55;3.80;;;;;;;;;;5073003;28;20459;-42
2022/11/05 12:05:35;;;;;;;5.93;4.50;;;;;;;;;;5074405;28;20016;-37
2022/11/05 12:08:03;;;;;;;6.68;4.32;;;;;;;;;;5074110;28;20265;-40
2022/11/05 12:10:31;;;;;;;8.23;4.55;;;;;;;;;;5074319;28;20095;-40
2022/11/05 12:13:15;;;;;;;10.65;4.55;;;;;;;;;;5074350;28;20020;-41
2022/11/05 12:15:48;;;;;;;5.05;4.38;;;;;;;;;;5074157;28;20028;-41
2022/11/05 12:18:27;;;;;;;5.43;4.63;;;;;;;;;;5074025;28;20060;-41
2022/11/05 12:21:10;;;;;;;6.90;4.53;;;;;;;;;;5073903;28;20479;-43
2022/11/05 12:23:39;;;;;;;6.72;4.78;;;;;;;;;;5074012;28;20257;-40
2022/11/05 12:26:27;;;;;;;9.05;5.05;;;;;;;;;;5073934;28;20020;-41
2022/11/05 12:28:59;;;;;;;10.35;5.00;;;;;;;;;;5074144;28;20150;-41
2022/11/05 12:31:27;;;;;;;7.43;5.30;;;;;;;;;;5073877;28;20082;-40
2022/11/05 12:33:52;;;;;;;8.32;5.25;;;;;;;;;;5073336;28;20467;-42
2022/11/05 12:36:22;;;;;;;8.30;4.80;;;;;;;;;;5073805;28;20012;-41
2022/11/05 12:38:47;;;;;;;8.65;4.93;;;;;;;;;;5073606;28;20032;-41
2022/11/05 12:41:15;;;;;;;6.23;4.70;;;;;;;;;;5073839;28;20028;-40
2022/11/05 12:43:40;;;;;;;6.20;4.05;;;;;;;;;;5073278;28;20051;-42
2022/11/05 12:46:05;;;;;;;9.80;3.47;;;;;;;;;;5073706;28;20021;-40
2022/11/05 12:48:34;;;;;;;6.20;4.00;;;;;;;;;;5073511;28;20021;-39
2022/11/05 12:51:17;;;;;;;6.75;4.22;;;;;;;;;;5073575;28;20019;-41
2022/11/05 12:53:43;;;;;;;6.72;4.97;;;;;;;;;;5073070;28;20066;-36
2022/11/05 12:56:17;;;;;;;7.93;4.57;;;;;;;;;;5073001;28;20471;-41
2022/11/05 12:58:53;;;;;;;6.93;5.13;;;;;;;;;;5073207;28;20283;-42
2022/11/05 13:01:24;;;;;;;5.80;4.20;;;;;;;;;;5073208;28;20455;-39
2022/11/05 13:03:52;;;;;;;7.97;4.70;;;;;;;;;;5073049;28;20485;-39
2022/11/05 13:06:24;;;;;;;5.75;4.82;;;;;;;;;;5072941;28;20390;-39
2022/11/05 13:08:59;;;;;;;7.18;4.00;;;;;;;;;;5072943;28;20063;-42
2022/11/05 13:11:31;;;;;;;5.60;4.18;;;;;;;;;;5072829;28;20108;-35
2022/11/05 13:14:06;;;;;;;6.00;4.32;;;;;;;;;;5072719;28;20059;-40
2022/11/05 13:16:33;;;;;;;5.43;4.18;;;;;;;;;;5072892;28;20490;-41
2022/11/05 13:19:03;;;;;;;5.28;4.13;;;;;;;;;;5072626;28;20020;-40
2022/11/05 13:21:29;;;;;;;6.20;4.68;;;;;;;;;;5072843;28;20017;-39
2022/11/05 13:23:54;;;;;;;6.78;4.60;;;;;;;;;;5072777;28;20383;-41
2022/11/05 13:26:23;;;;;;;8.20;5.23;;;;;;;;;;5072802;28;20095;-40
2022/11/05 13:28:52;;;;;;;5.85;4.65;;;;;;;;;;5072859;28;20249;-39
2022/11/05 13:31:18;;;;;;;;;;;;;;;;;;5073161;28;20032;-36
2022/11/05 13:33:44;;;;;;;13.55;7.70;;;;;;;;;;5072549;28;19916;-37
2022/11/05 13:39:08;;;;;;;6.55;5.55;;;;;;;;;;5072637;28;20066;-40
2022/11/05 13:41:39;;;;;;;6.35;4.93;;;;;;;;;;5072573;28;20025;-39
2022/11/05 13:44:07;;;;;;;6.57;5.35;;;;;;;;;;5072547;28;20064;-39
2022/11/05 13:46:51;;;;;;;6.05;4.75;;;;;;;;;;5072635;28;20025;-39
2022/11/05 13:49:26;;;;;;;7.53;4.97;;;;;;;;;;5072651;28;20048;-39
2022/11/05 13:51:54;;;;;;;6.55;5.25;;;;;;;;;;5072539;28;20070;-36
2022/11/05 13:54:35;;;;;;;8.95;4.88;;;;;;;;;;5072186;28;20032;-40
2022/11/05 13:57:11;;;;;;;7.90;5.32;;;;;;;;;;5072766;28;20052;-41
2022/11/05 13:59:57;;;;;;;11.82;5.20;;;;;;;;;;5072393;28;20016;-40
2022/11/05 14:02:27;;;;;;;6.60;5.18;;;;;;;;;;5072445;28;20028;-41
2022/11/05 14:04:55;;;;;;;8.73;5.70;;;;;;;;;;5072198;28;20016;-42
2022/11/05 14:07:46;;;;;;;7.05;5.13;;;;;;;;;;5072595;28;20021;-40
2022/11/05 14:10:18;;;;;;;7.30;5.68;;;;;;;;;;5071019;28;20383;-41
2022/11/05 14:12:46;;;;;;;8.77;5.85;;;;;;;;;;5072409;28;20028;-40
2022/11/05 14:15:14;;;;;;;6.85;5.47;;;;;;;;;;5072037;28;20157;-40
2022/11/05 14:17:59;;;;;;;9.00;6.15;;;;;;;;;;5072250;28;20368;-40
2022/11/05 14:20:24;;;;;;;6.68;4.80;;;;;;;;;;5072209;28;20460;-41
2022/11/05 14:22:50;;;;;;;8.15;5.57;;;;;;;;;;5072513;28;20042;-40
2022/11/05 14:25:18;;;;;;;6.28;5.03;;;;;;;;;;5076355;28;20039;-42
2022/11/05 14:27:45;;;;;;;7.00;5.50;;;;;;;;;;5075962;28;20027;-40
2022/11/05 14:30:29;;;;;;;12.95;5.50;;;;;;;;;;5076329;28;20027;-41
2022/11/05 14:33:01;;;;;;;6.95;5.05;;;;;;;;;;5076210;28;20025;-36
2022/11/05 14:35:34;;;;;;;5.43;4.78;;;;;;;;;;5075875;28;20036;-40
2022/11/05 14:38:00;;;;;;;7.57;5.07;;;;;;;;;;5075840;28;20482;-40
2022/11/05 14:40:28;;;;;;;7.35;5.45;;;;;;;;;;5076164;28;20021;-40
2022/11/05 14:42:55;;;;;;;6.22;5.05;;;;;;;;;;5075941;28;20131;-42
2022/11/05 14:45:31;;;;;;;8.98;5.05;;;;;;;;;;5075837;28;20056;-42
2022/11/05 14:47:58;;;;;;;7.03;5.65;;;;;;;;;;5075800;28;20025;-41
2022/11/05 14:50:26;;;;;;;8.18;5.32;;;;;;;;;;5075665;28;20020;-43
2022/11/05 14:52:53;;;;;;;9.13;6.00;;;;;;;;;;5075552;28;20055;-37
2022/11/05 14:55:30;;;;;;;7.97;5.78;;;;;;;;;;5075648;28;20124;-41
2022/11/05 14:57:55;;;;;;;8.48;6.03;;;;;;;;;;5075656;28;20048;-41
2022/11/05 15:00:39;;;;;;;8.37;5.83;;;;;;;;;;5075519;28;20483;-40
2022/11/05 15:03:23;;;;;;;7.70;6.00;;;;;;;;;;5075290;28;20293;-41
2022/11/05 15:05:49;;;;;;;9.43;6.75;;;;;;;;;;5075581;28;20024;-37
2022/11/05 15:08:28;;;;;;;11.55;6.18;;;;;;;;;;5075528;28;20017;-40
2022/11/05 15:11:14;;;;;;;10.67;6.57;;;;;;;;;;5075372;28;20027;-41
2022/11/05 15:13:49;;;;;;;9.77;5.97;;;;;;;;;;5063501;28;20730;-40
2022/11/05 15:16:18;;;;;;;8.55;6.18;;;;;;;;;;5075392;28;20060;-41
2022/11/05 15:18:44;;;;;;;8.27;5.83;;;;;;;;;;5075344;28;20021;-41
2022/11/05 15:21:13;;;;;;;9.40;6.20;;;;;;;;;;5075322;28;20021;-39